Terminal Aerodrome Forecast
Issued by NWS Brownsville, TX

Home | Current Version | Previous Version | Text Only | Print | Product List | Glossary On
Versions: 1 2 3 4 5 6 7 8 9 10 11 12 13 14 15 16
000
FTUS44 KBRO 290500
TAFBRO
TAF
KBRO 290534Z 2906/3006 32007KT P6SM BKN009
     FM290800 31006KT P6SM BKN015
     FM291100 33006KT 2SM BR SCT015 SCT200
     FM291500 04007KT P6SM SCT025 SCT250
     FM300300 02004KT 5SM BR BKN030=

USA.gov is the U.S. government's official web portal to all federal, state and local government web resources and services.